İstanbul, Turkey

Saat: 08:43 AM +03 Tarih: 20 Ocak 2017 (GMT +0300)
Ataturk | | Change Station

Elev 121 ft 40.97 °N, 28.82 °E | Updated 23 minutes ago

Light Rain Showers
Hafif Sağanak Yağmur
39
Feels Like 30
N
17
Rüzgar Değişken Rüzgar from Kuzey

Bugün
High -- | Low -- F°
--% Chance of Precip.
Dün
High -- | Low -- F°
Precip. -- inç
Basınç 30.45 inç
Görüş Uzaklığı 5.0 mil
Bulutlar Az Bulutlu 1000 ft
Çok Bulutlu 2000 ft
Rüzgar Etkisi 30
Çiğ noktası 34
Nem oranı 81%
Yağış 0.00 inç
Kar Kalınlığı Not available.
8:24 AM 6:07 PM
Şişkin Ay, 47% visible
METAR LTBA 200520Z 01015KT 8000 -SHRA SCT010 BKN020 04/01 Q1031 NOSIG RMK RWY17L 02016G26KT RWY05 36016KT RWY23 03016KT 360V060
Basınç 30.45 inç
Görüş Uzaklığı 5.0 mil
Bulutlar Az Bulutlu 1000 ft
Çok Bulutlu 2000 ft
Rüzgar Etkisi 30
Çiğ noktası 34
Nem oranı 81%
Yağış 0.00 inç
Kar Kalınlığı Not available.
8:24 AM 6:07 PM
Şişkin Ay, 47% visible
METAR LTBA 200520Z 01015KT 8000 -SHRA SCT010 BKN020 04/01 Q1031 NOSIG RMK RWY17L 02016G26KT RWY05 36016KT RWY23 03016KT 360V060

Get Your Daily Forecast Email!

Thanks for signing up!

Be on the lookout for a verification email in your inbox.

You'll start receiving the daily forecast at 8 AM.

×

10-Day Weather Forecast

×

Almanac

Gökbilim

Jan. 20, 2017 Rise Set
Gerçek Zaman
Günlük Tan
Deniz Tanı
Geceyarısı Yıldız Zamanı
Ay
Görünür Işığın Uzunluğu
Günün Uzunluğu
Tomorrow will be .
, % of the Moon is Illuminated

Günün En Yüksekleri

Country Highs Country Lows

Community

WunderPhotos

Upload Photos

1,962,540 photos uploaded!

WunderBlog® & News

Nearby

Hava Kalitesi

  Hava Kalitesi Hava Kalitesi Endeksi Kirletici
Not available.

Kar Kalınlığı

Station Depth Yükseklik

Earthquake Activity

Şehir Distance Mag. Time & Date
Minimum magnitude displayed is 2.5.

Coastal Water Temperatures

Yer Sıcaklık

Stations

Nearby Weather Stations

Station Location Sıcaklık Rüzgar Etkisi Çiğ noktası Nem oranı Rüzgar Precip. Elev Güncellenme Zamanı Biçim